sensor_id;sensor_type;location;lat;lon;timestamp;temperature;humidity
24384;DHT22;12504;52.870;8.798;2024-01-30T03:41:44;5.70;99.90
24384;DHT22;12504;52.870;8.798;2024-01-30T03:44:10;5.70;99.90
24384;DHT22;12504;52.870;8.798;2024-01-30T04:01:14;5.50;99.90
24384;DHT22;12504;52.870;8.798;2024-01-30T04:03:43;5.50;99.90
24384;DHT22;12504;52.870;8.798;2024-01-30T04:06:11;5.60;99.90
24384;DHT22;12504;52.870;8.798;2024-01-30T04:08:37;5.60;99.90
24384;DHT22;12504;52.870;8.798;2024-01-30T04:11:06;5.70;99.90
24384;DHT22;12504;52.870;8.798;2024-01-30T04:13:33;5.80;99.90
24384;DHT22;12504;52.870;8.798;2024-01-30T04:16:02;5.80;99.90
24384;DHT22;12504;52.870;8.798;2024-01-30T04:18:28;5.80;99.90
24384;DHT22;12504;52.870;8.798;2024-01-30T08:15:47;5.50;99.90
24384;DHT22;12504;52.870;8.798;2024-01-30T08:18:14;5.70;99.90
24384;DHT22;12504;52.870;8.798;2024-01-30T08:20:40;5.80;99.90
24384;DHT22;12504;52.870;8.798;2024-01-30T08:23:05;5.90;99.90
24384;DHT22;12504;52.870;8.798;2024-01-30T08:25:31;6.10;99.90
24384;DHT22;12504;52.870;8.798;2024-01-30T08:27:57;6.10;99.90
24384;DHT22;12504;52.870;8.798;2024-01-30T08:30:23;6.20;99.90
24384;DHT22;12504;52.870;8.798;2024-01-30T08:32:48;6.30;99.90
24384;DHT22;12504;52.870;8.798;2024-01-30T08:35:14;6.30;99.90
24384;DHT22;12504;52.870;8.798;2024-01-30T08:37:41;6.50;99.90
24384;DHT22;12504;52.870;8.798;2024-01-30T08:40:07;6.60;99.90
24384;DHT22;12504;52.870;8.798;2024-01-30T08:42:34;6.70;99.90
24384;DHT22;12504;52.870;8.798;2024-01-30T08:45:01;6.80;99.90
24384;DHT22;12504;52.870;8.798;2024-01-30T08:47:28;6.90;99.90
24384;DHT22;12504;52.870;8.798;2024-01-30T08:49:54;7.10;99.90
24384;DHT22;12504;52.870;8.798;2024-01-30T08:52:20;7.20;99.90
24384;DHT22;12504;52.870;8.798;2024-01-30T08:54:45;7.30;99.90
24384;DHT22;12504;52.870;8.798;2024-01-30T08:57:11;7.30;99.90
24384;DHT22;12504;52.870;8.798;2024-01-30T08:59:36;7.30;99.90
24384;DHT22;12504;52.870;8.798;2024-01-30T09:02:02;7.40;99.90
24384;DHT22;12504;52.870;8.798;2024-01-30T09:04:29;7.40;99.90
24384;DHT22;12504;52.870;8.798;2024-01-30T09:06:56;7.60;99.90
24384;DHT22;12504;52.870;8.798;2024-01-30T09:09:21;7.70;99.90
24384;DHT22;12504;52.870;8.798;2024-01-30T09:11:49;7.70;99.90
24384;DHT22;12504;52.870;8.798;2024-01-30T09:14:14;7.80;99.90
24384;DHT22;12504;52.870;8.798;2024-01-30T09:16:40;7.90;99.90
24384;DHT22;12504;52.870;8.798;2024-01-30T09:19:10;8.00;99.90
24384;DHT22;12504;52.870;8.798;2024-01-30T09:21:36;8.00;99.90
24384;DHT22;12504;52.870;8.798;2024-01-30T09:24:04;8.10;99.90
24384;DHT22;12504;52.870;8.798;2024-01-30T09:26:30;8.20;99.90
24384;DHT22;12504;52.870;8.798;2024-01-30T09:28:57;8.20;99.90
24384;DHT22;12504;52.870;8.798;2024-01-30T09:31:22;8.20;99.90
24384;DHT22;12504;52.870;8.798;2024-01-30T09:33:49;8.30;99.90
24384;DHT22;12504;52.870;8.798;2024-01-30T09:36:16;8.30;99.90
24384;DHT22;12504;52.870;8.798;2024-01-30T09:38:44;8.40;99.90
24384;DHT22;12504;52.870;8.798;2024-01-30T09:41:11;8.50;99.90
24384;DHT22;12504;52.870;8.798;2024-01-30T09:43:39;8.60;99.90
24384;DHT22;12504;52.870;8.798;2024-01-30T09:46:11;8.70;99.90
24384;DHT22;12504;52.870;8.798;2024-01-30T09:48:41;8.70;99.90
24384;DHT22;12504;52.870;8.798;2024-01-30T09:51:08;8.80;99.90
24384;DHT22;12504;52.870;8.798;2024-01-30T09:53:33;8.90;99.90
24384;DHT22;12504;52.870;8.798;2024-01-30T09:56:01;9.00;99.90
24384;DHT22;12504;52.870;8.798;2024-01-30T09:58:27;9.10;99.90
24384;DHT22;12504;52.870;8.798;2024-01-30T10:00:53;9.00;99.90
24384;DHT22;12504;52.870;8.798;2024-01-30T10:03:19;9.10;99.90
24384;DHT22;12504;52.870;8.798;2024-01-30T10:05:51;9.00;99.90
24384;DHT22;12504;52.870;8.798;2024-01-30T10:08:19;9.00;99.90
24384;DHT22;12504;52.870;8.798;2024-01-30T10:10:48;9.20;99.90
24384;DHT22;12504;52.870;8.798;2024-01-30T10:13:19;9.20;99.90
24384;DHT22;12504;52.870;8.798;2024-01-30T10:15:45;9.30;99.90
24384;DHT22;12504;52.870;8.798;2024-01-30T10:18:11;9.30;99.90
24384;DHT22;12504;52.870;8.798;2024-01-30T10:20:37;9.30;99.90
24384;DHT22;12504;52.870;8.798;2024-01-30T10:23:04;9.30;99.90
24384;DHT22;12504;52.870;8.798;2024-01-30T10:25:31;9.30;99.90
24384;DHT22;12504;52.870;8.798;2024-01-30T10:27:58;9.30;99.90
24384;DHT22;12504;52.870;8.798;2024-01-30T10:30:24;9.30;99.90
24384;DHT22;12504;52.870;8.798;2024-01-30T10:32:50;9.30;99.90
24384;DHT22;12504;52.870;8.798;2024-01-30T10:35:18;9.40;99.90
24384;DHT22;12504;52.870;8.798;2024-01-30T10:37:44;9.40;99.90
24384;DHT22;12504;52.870;8.798;2024-01-30T10:40:13;9.30;99.90
24384;DHT22;12504;52.870;8.798;2024-01-30T10:42:45;9.50;99.90
24384;DHT22;12504;52.870;8.798;2024-01-30T10:45:15;9.60;99.90
24384;DHT22;12504;52.870;8.798;2024-01-30T10:47:50;9.70;99.90
24384;DHT22;12504;52.870;8.798;2024-01-30T10:50:16;9.80;99.90
24384;DHT22;12504;52.870;8.798;2024-01-30T10:52:43;9.90;99.90
24384;DHT22;12504;52.870;8.798;2024-01-30T10:55:10;10.00;99.90
24384;DHT22;12504;52.870;8.798;2024-01-30T10:57:38;10.10;99.90
24384;DHT22;12504;52.870;8.798;2024-01-30T11:00:06;10.20;99.90
24384;DHT22;12504;52.870;8.798;2024-01-30T11:02:41;10.30;99.90
24384;DHT22;12504;52.870;8.798;2024-01-30T11:05:09;10.50;99.90
24384;DHT22;12504;52.870;8.798;2024-01-30T11:07:35;10.60;99.90
24384;DHT22;12504;52.870;8.798;2024-01-30T11:10:04;10.60;99.90
24384;DHT22;12504;52.870;8.798;2024-01-30T11:12:33;10.60;99.90
24384;DHT22;12504;52.870;8.798;2024-01-30T11:15:16;10.60;99.90
24384;DHT22;12504;52.870;8.798;2024-01-30T11:20:22;10.70;99.90
24384;DHT22;12504;52.870;8.798;2024-01-30T11:22:51;10.70;99.90
24384;DHT22;12504;52.870;8.798;2024-01-30T11:25:20;10.70;99.90
24384;DHT22;12504;52.870;8.798;2024-01-30T11:27:46;10.70;99.90
24384;DHT22;12504;52.870;8.798;2024-01-30T11:30:32;10.80;99.90
24384;DHT22;12504;52.870;8.798;2024-01-30T11:35:31;10.80;99.90
24384;DHT22;12504;52.870;8.798;2024-01-30T11:37:59;11.00;99.90
24384;DHT22;12504;52.870;8.798;2024-01-30T11:40:27;11.10;99.90
24384;DHT22;12504;52.870;8.798;2024-01-30T11:42:55;11.20;99.90
24384;DHT22;12504;52.870;8.798;2024-01-30T11:45:21;11.30;99.90
24384;DHT22;12504;52.870;8.798;2024-01-30T11:47:48;11.30;99.90
24384;DHT22;12504;52.870;8.798;2024-01-30T11:50:13;11.20;99.90
24384;DHT22;12504;52.870;8.798;2024-01-30T11:52:40;11.20;99.90
24384;DHT22;12504;52.870;8.798;2024-01-30T11:55:07;11.10;99.90
24384;DHT22;12504;52.870;8.798;2024-01-30T11:57:34;11.00;99.90
24384;DHT22;12504;52.870;8.798;2024-01-30T12:00:04;11.00;99.90
24384;DHT22;12504;52.870;8.798;2024-01-30T12:02:38;10.80;99.90
24384;DHT22;12504;52.870;8.798;2024-01-30T12:05:07;10.80;99.90
24384;DHT22;12504;52.870;8.798;2024-01-30T12:07:34;10.70;99.90
24384;DHT22;12504;52.870;8.798;2024-01-30T12:10:01;10.70;99.90
24384;DHT22;12504;52.870;8.798;2024-01-30T12:12:28;10.70;99.90
24384;DHT22;12504;52.870;8.798;2024-01-30T12:14:56;10.70;99.90
24384;DHT22;12504;52.870;8.798;2024-01-30T12:17:32;10.70;99.90
24384;DHT22;12504;52.870;8.798;2024-01-30T12:20:11;10.70;99.90
24384;DHT22;12504;52.870;8.798;2024-01-30T12:22:41;10.80;99.90
24384;DHT22;12504;52.870;8.798;2024-01-30T12:25:15;10.80;99.90
24384;DHT22;12504;52.870;8.798;2024-01-30T12:27:44;10.90;99.90
24384;DHT22;12504;52.870;8.798;2024-01-30T12:30:14;11.00;99.90
24384;DHT22;12504;52.870;8.798;2024-01-30T12:32:41;11.00;99.90
24384;DHT22;12504;52.870;8.798;2024-01-30T12:35:14;11.10;99.90
24384;DHT22;12504;52.870;8.798;2024-01-30T12:37:42;11.20;99.90
24384;DHT22;12504;52.870;8.798;2024-01-30T12:40:11;11.20;99.90
24384;DHT22;12504;52.870;8.798;2024-01-30T12:42:43;11.30;99.90
24384;DHT22;12504;52.870;8.798;2024-01-30T12:45:09;11.30;99.90
24384;DHT22;12504;52.870;8.798;2024-01-30T12:47:35;11.30;99.90
24384;DHT22;12504;52.870;8.798;2024-01-30T12:50:00;11.30;99.90
24384;DHT22;12504;52.870;8.798;2024-01-30T12:52:26;11.30;99.90
24384;DHT22;12504;52.870;8.798;2024-01-30T12:54:53;11.30;99.90
24384;DHT22;12504;52.870;8.798;2024-01-30T12:57:19;11.30;99.90
24384;DHT22;12504;52.870;8.798;2024-01-30T12:59:47;11.30;99.90
24384;DHT22;12504;52.870;8.798;2024-01-30T13:02:13;11.30;99.90
24384;DHT22;12504;52.870;8.798;2024-01-30T13:04:39;11.30;99.90
24384;DHT22;12504;52.870;8.798;2024-01-30T13:07:05;11.30;99.90
24384;DHT22;12504;52.870;8.798;2024-01-30T13:09:31;11.30;99.90
24384;DHT22;12504;52.870;8.798;2024-01-30T13:11:57;11.30;99.90
24384;DHT22;12504;52.870;8.798;2024-01-30T13:14:24;11.30;99.90
24384;DHT22;12504;52.870;8.798;2024-01-30T13:16:51;11.30;99.90
24384;DHT22;12504;52.870;8.798;2024-01-30T13:19:17;11.30;99.90
24384;DHT22;12504;52.870;8.798;2024-01-30T13:21:43;11.30;99.90
24384;DHT22;12504;52.870;8.798;2024-01-30T13:24:08;11.20;99.90
24384;DHT22;12504;52.870;8.798;2024-01-30T13:26:35;11.20;99.90
24384;DHT22;12504;52.870;8.798;2024-01-30T13:29:01;11.20;99.90
24384;DHT22;12504;52.870;8.798;2024-01-30T13:31:27;11.20;99.90
24384;DHT22;12504;52.870;8.798;2024-01-30T13:33:54;11.20;99.90
24384;DHT22;12504;52.870;8.798;2024-01-30T13:36:21;11.10;99.90
24384;DHT22;12504;52.870;8.798;2024-01-30T13:38:47;11.20;99.90
24384;DHT22;12504;52.870;8.798;2024-01-30T13:41:13;11.10;99.90
24384;DHT22;12504;52.870;8.798;2024-01-30T13:43:38;11.20;99.90
24384;DHT22;12504;52.870;8.798;2024-01-30T13:46:04;11.10;99.90
24384;DHT22;12504;52.870;8.798;2024-01-30T13:48:32;11.10;99.90
24384;DHT22;12504;52.870;8.798;2024-01-30T13:50:58;11.10;99.90
24384;DHT22;12504;52.870;8.798;2024-01-30T13:53:24;11.10;99.90
24384;DHT22;12504;52.870;8.798;2024-01-30T13:55:49;11.10;99.90
24384;DHT22;12504;52.870;8.798;2024-01-30T13:58:15;11.10;99.90
24384;DHT22;12504;52.870;8.798;2024-01-30T14:00:41;11.10;99.90
24384;DHT22;12504;52.870;8.798;2024-01-30T14:03:06;11.10;99.90
24384;DHT22;12504;52.870;8.798;2024-01-30T14:05:32;11.10;99.90
24384;DHT22;12504;52.870;8.798;2024-01-30T14:08:02;11.00;99.90
24384;DHT22;12504;52.870;8.798;2024-01-30T14:10:28;11.00;99.90
24384;DHT22;12504;52.870;8.798;2024-01-30T14:12:53;11.00;99.90
24384;DHT22;12504;52.870;8.798;2024-01-30T14:15:19;11.10;99.90
24384;DHT22;12504;52.870;8.798;2024-01-30T14:17:45;11.10;99.90
24384;DHT22;12504;52.870;8.798;2024-01-30T14:20:14;11.10;99.90
24384;DHT22;12504;52.870;8.798;2024-01-30T14:22:42;11.10;99.90
24384;DHT22;12504;52.870;8.798;2024-01-30T14:25:09;11.10;99.90
24384;DHT22;12504;52.870;8.798;2024-01-30T14:27:36;11.20;99.90
24384;DHT22;12504;52.870;8.798;2024-01-30T14:30:04;11.30;99.90
24384;DHT22;12504;52.870;8.798;2024-01-30T14:32:29;11.30;99.90
24384;DHT22;12504;52.870;8.798;2024-01-30T14:34:56;11.30;99.90
24384;DHT22;12504;52.870;8.798;2024-01-30T14:37:24;11.30;99.90
24384;DHT22;12504;52.870;8.798;2024-01-30T14:39:50;11.30;99.90
24384;DHT22;12504;52.870;8.798;2024-01-30T14:42:16;11.30;99.90
24384;DHT22;12504;52.870;8.798;2024-01-30T14:44:43;11.30;99.90
24384;DHT22;12504;52.870;8.798;2024-01-30T14:47:09;11.30;99.90
24384;DHT22;12504;52.870;8.798;2024-01-30T14:49:36;11.40;99.90
24384;DHT22;12504;52.870;8.798;2024-01-30T14:52:03;11.30;99.90
24384;DHT22;12504;52.870;8.798;2024-01-30T14:54:29;11.40;99.90
24384;DHT22;12504;52.870;8.798;2024-01-30T14:56:55;11.60;99.90
24384;DHT22;12504;52.870;8.798;2024-01-30T14:59:21;11.70;99.90
24384;DHT22;12504;52.870;8.798;2024-01-30T15:01:47;11.80;99.90
24384;DHT22;12504;52.870;8.798;2024-01-30T15:04:14;11.70;99.90
24384;DHT22;12504;52.870;8.798;2024-01-30T15:06:40;11.50;99.90
24384;DHT22;12504;52.870;8.798;2024-01-30T15:09:11;11.40;99.90
24384;DHT22;12504;52.870;8.798;2024-01-30T15:11:44;11.30;99.90
24384;DHT22;12504;52.870;8.798;2024-01-30T15:14:11;11.20;99.90
24384;DHT22;12504;52.870;8.798;2024-01-30T15:19:24;11.00;99.90
24384;DHT22;12504;52.870;8.798;2024-01-30T15:21:51;11.00;99.90
24384;DHT22;12504;52.870;8.798;2024-01-30T15:24:17;11.10;99.90
24384;DHT22;12504;52.870;8.798;2024-01-30T15:26:47;11.10;99.90
24384;DHT22;12504;52.870;8.798;2024-01-30T15:29:12;11.10;99.90
24384;DHT22;12504;52.870;8.798;2024-01-30T15:31:38;11.10;99.90
24384;DHT22;12504;52.870;8.798;2024-01-30T15:34:04;11.00;99.90
24384;DHT22;12504;52.870;8.798;2024-01-30T15:36:29;11.10;99.90
24384;DHT22;12504;52.870;8.798;2024-01-30T15:38:56;11.10;99.90
24384;DHT22;12504;52.870;8.798;2024-01-30T15:41:23;11.00;99.90
24384;DHT22;12504;52.870;8.798;2024-01-30T15:43:49;11.10;99.90
24384;DHT22;12504;52.870;8.798;2024-01-30T15:46:16;11.00;99.90
24384;DHT22;12504;52.870;8.798;2024-01-30T15:48:43;11.00;99.90
24384;DHT22;12504;52.870;8.798;2024-01-30T15:51:08;11.00;99.90
24384;DHT22;12504;52.870;8.798;2024-01-30T15:53:34;11.00;99.90
24384;DHT22;12504;52.870;8.798;2024-01-30T15:56:00;11.00;99.90
24384;DHT22;12504;52.870;8.798;2024-01-30T15:58:26;11.00;99.90
24384;DHT22;12504;52.870;8.798;2024-01-30T16:00:51;11.00;99.90
24384;DHT22;12504;52.870;8.798;2024-01-30T16:03:17;11.00;99.90
24384;DHT22;12504;52.870;8.798;2024-01-30T16:05:43;11.00;99.90
24384;DHT22;12504;52.870;8.798;2024-01-30T16:08:08;11.00;99.90
24384;DHT22;12504;52.870;8.798;2024-01-30T16:10:34;11.00;99.90
24384;DHT22;12504;52.870;8.798;2024-01-30T16:13:00;11.00;99.90
24384;DHT22;12504;52.870;8.798;2024-01-30T16:15:25;11.00;99.90
24384;DHT22;12504;52.870;8.798;2024-01-30T16:17:51;10.90;99.90
24384;DHT22;12504;52.870;8.798;2024-01-30T16:20:17;10.90;99.90
24384;DHT22;12504;52.870;8.798;2024-01-30T16:22:42;10.90;99.90
24384;DHT22;12504;52.870;8.798;2024-01-30T16:25:09;10.90;99.90
24384;DHT22;12504;52.870;8.798;2024-01-30T16:27:36;10.90;99.90
24384;DHT22;12504;52.870;8.798;2024-01-30T16:30:03;10.90;99.90
24384;DHT22;12504;52.870;8.798;2024-01-30T16:32:30;10.90;99.90
24384;DHT22;12504;52.870;8.798;2024-01-30T16:34:57;10.80;99.90
24384;DHT22;12504;52.870;8.798;2024-01-30T16:37:23;10.80;99.90
24384;DHT22;12504;52.870;8.798;2024-01-30T16:39:50;10.80;99.90
24384;DHT22;12504;52.870;8.798;2024-01-30T16:42:16;10.80;99.90
24384;DHT22;12504;52.870;8.798;2024-01-30T16:44:42;10.80;99.90
24384;DHT22;12504;52.870;8.798;2024-01-30T16:47:09;10.80;99.90
24384;DHT22;12504;52.870;8.798;2024-01-30T16:49:35;10.80;99.90
24384;DHT22;12504;52.870;8.798;2024-01-30T16:52:01;10.70;99.90
24384;DHT22;12504;52.870;8.798;2024-01-30T16:54:26;10.70;99.90
24384;DHT22;12504;52.870;8.798;2024-01-30T16:56:53;10.70;99.90
24384;DHT22;12504;52.870;8.798;2024-01-30T16:59:19;10.60;99.90
24384;DHT22;12504;52.870;8.798;2024-01-30T17:01:45;10.60;99.90
24384;DHT22;12504;52.870;8.798;2024-01-30T17:04:19;10.60;99.90
24384;DHT22;12504;52.870;8.798;2024-01-30T17:06:47;10.60;99.90
24384;DHT22;12504;52.870;8.798;2024-01-30T17:09:13;10.60;99.90
24384;DHT22;12504;52.870;8.798;2024-01-30T17:11:43;10.70;99.90
24384;DHT22;12504;52.870;8.798;2024-01-30T17:14:09;10.60;99.90
24384;DHT22;12504;52.870;8.798;2024-01-30T17:16:37;10.50;99.90
24384;DHT22;12504;52.870;8.798;2024-01-30T17:19:03;10.40;99.90
24384;DHT22;12504;52.870;8.798;2024-01-30T17:21:30;10.40;99.90
24384;DHT22;12504;52.870;8.798;2024-01-30T17:23:57;10.20;99.90
24384;DHT22;12504;52.870;8.798;2024-01-30T17:26:24;10.10;99.90
24384;DHT22;12504;52.870;8.798;2024-01-30T17:28:50;9.90;99.90
24384;DHT22;12504;52.870;8.798;2024-01-30T17:31:16;9.90;99.90
24384;DHT22;12504;52.870;8.798;2024-01-30T17:33:43;9.80;99.90
24384;DHT22;12504;52.870;8.798;2024-01-30T17:36:09;9.70;99.90
24384;DHT22;12504;52.870;8.798;2024-01-30T17:38:34;9.70;99.90
24384;DHT22;12504;52.870;8.798;2024-01-30T17:41:00;9.70;99.90
24384;DHT22;12504;52.870;8.798;2024-01-30T17:43:26;9.80;99.90
24384;DHT22;12504;52.870;8.798;2024-01-30T17:45:51;9.80;99.90
24384;DHT22;12504;52.870;8.798;2024-01-30T17:48:17;9.70;99.90
24384;DHT22;12504;52.870;8.798;2024-01-30T17:50:44;9.80;99.90
24384;DHT22;12504;52.870;8.798;2024-01-30T17:53:10;9.80;99.90
24384;DHT22;12504;52.870;8.798;2024-01-30T17:55:36;9.80;99.90
24384;DHT22;12504;52.870;8.798;2024-01-30T17:58:02;9.80;99.90
24384;DHT22;12504;52.870;8.798;2024-01-30T18:00:28;9.80;99.90
24384;DHT22;12504;52.870;8.798;2024-01-30T18:02:54;9.80;99.90
24384;DHT22;12504;52.870;8.798;2024-01-30T18:05:22;9.80;99.90
24384;DHT22;12504;52.870;8.798;2024-01-30T18:07:48;9.70;99.90
24384;DHT22;12504;52.870;8.798;2024-01-30T18:10:14;9.70;99.90
24384;DHT22;12504;52.870;8.798;2024-01-30T18:12:45;9.70;99.90
24384;DHT22;12504;52.870;8.798;2024-01-30T18:15:11;9.70;99.90
24384;DHT22;12504;52.870;8.798;2024-01-30T18:17:37;9.80;99.90
24384;DHT22;12504;52.870;8.798;2024-01-30T18:20:05;9.80;99.90
24384;DHT22;12504;52.870;8.798;2024-01-30T18:22:31;9.70;99.90
24384;DHT22;12504;52.870;8.798;2024-01-30T18:24:57;9.70;99.90
24384;DHT22;12504;52.870;8.798;2024-01-30T18:27:23;9.70;99.90
24384;DHT22;12504;52.870;8.798;2024-01-30T18:29:49;9.70;99.90
24384;DHT22;12504;52.870;8.798;2024-01-30T18:32:14;9.70;99.90
24384;DHT22;12504;52.870;8.798;2024-01-30T18:34:40;9.60;99.90
24384;DHT22;12504;52.870;8.798;2024-01-30T18:37:06;9.50;99.90
